createdAt,value
2023-05-15T00:00:41.867Z,9.70
2023-05-15T00:03:09.909Z,9.80
2023-05-15T00:05:39.227Z,9.60
2023-05-15T00:08:07.558Z,9.60
2023-05-15T00:10:35.551Z,9.60
2023-05-15T00:13:03.385Z,9.50
2023-05-15T00:15:31.306Z,9.70
2023-05-15T00:17:59.175Z,9.60
2023-05-15T00:20:27.039Z,9.40
2023-05-15T00:22:56.905Z,9.40
2023-05-15T00:25:24.922Z,9.30
2023-05-15T00:27:52.868Z,9.30
2023-05-15T00:30:20.728Z,9.30
2023-05-15T00:32:48.656Z,9.30
2023-05-15T00:35:16.719Z,9.60
2023-05-15T00:37:44.579Z,9.40
2023-05-15T00:40:21.413Z,9.20
2023-05-15T00:42:50.076Z,9.20
2023-05-15T00:45:18.401Z,9.20
2023-05-15T00:47:47.730Z,9.10
2023-05-15T00:50:16.397Z,9.10
2023-05-15T00:52:44.660Z,9.10
2023-05-15T00:55:13.870Z,9.10
2023-05-15T00:57:43.196Z,9.10
2023-05-15T01:00:11.865Z,9.00
2023-05-15T01:02:40.167Z,8.90
2023-05-15T01:05:08.956Z,8.90
2023-05-15T01:07:45.844Z,8.90
2023-05-15T01:10:16.331Z,8.90
2023-05-15T01:12:47.110Z,8.90
2023-05-15T01:15:14.996Z,8.90
2023-05-15T01:17:42.939Z,8.80
2023-05-15T01:20:13.251Z,8.70
2023-05-15T01:22:52.792Z,8.80
2023-05-15T01:26:21.903Z,8.70
2023-05-15T01:29:00.413Z,8.70
2023-05-15T01:31:36.038Z,8.70
2023-05-15T01:34:07.344Z,8.60
2023-05-15T01:36:40.274Z,8.80
2023-05-15T01:39:09.409Z,8.50
2023-05-15T01:41:43.307Z,8.50
2023-05-15T01:44:17.931Z,8.50
2023-05-15T01:46:49.373Z,8.60
2023-05-15T01:49:20.549Z,8.60
2023-05-15T01:51:54.001Z,8.40
2023-05-15T01:54:23.696Z,8.30
2023-05-15T01:56:53.216Z,8.30
2023-05-15T01:59:23.518Z,8.40
2023-05-15T02:01:52.442Z,8.00
2023-05-15T02:04:20.729Z,7.90
2023-05-15T02:06:50.329Z,8.00
2023-05-15T02:09:19.221Z,7.90
2023-05-15T02:11:47.440Z,7.90
2023-05-15T02:14:17.148Z,7.90
2023-05-15T02:16:46.419Z,7.90
2023-05-15T02:19:14.622Z,7.80
2023-05-15T02:21:42.919Z,8.00
2023-05-15T02:24:10.774Z,7.80
2023-05-15T02:26:50.758Z,7.90
2023-05-15T02:29:21.709Z,7.90
2023-05-15T02:32:00.886Z,8.00
2023-05-15T02:34:35.694Z,7.90
2023-05-15T02:37:06.666Z,7.80
2023-05-15T02:39:35.473Z,7.70
2023-05-15T02:42:04.150Z,7.50
2023-05-15T02:44:32.861Z,7.90
2023-05-15T02:47:04.722Z,7.60
2023-05-15T02:49:32.548Z,7.60
2023-05-15T02:52:00.414Z,7.50
2023-05-15T02:54:28.301Z,7.90
2023-05-15T02:56:56.158Z,7.50
2023-05-15T02:59:24.228Z,7.90
2023-05-15T03:01:52.171Z,7.50
2023-05-15T03:04:22.273Z,7.40
2023-05-15T03:06:50.096Z,7.70
2023-05-15T03:09:18.134Z,7.50
2023-05-15T03:11:45.976Z,7.40
2023-05-15T03:14:14.627Z,7.40
2023-05-15T03:16:42.865Z,7.40
2023-05-15T03:19:10.841Z,7.50
2023-05-15T03:21:40.075Z,7.90
2023-05-15T03:24:08.510Z,7.50
2023-05-15T03:26:36.399Z,7.50
2023-05-15T03:29:04.356Z,7.50
2023-05-15T03:31:32.264Z,7.50
2023-05-15T03:34:00.178Z,7.60
2023-05-15T03:36:28.073Z,7.50
2023-05-15T03:38:57.300Z,7.50
2023-05-15T03:41:26.007Z,7.60
2023-05-15T03:43:53.884Z,7.60
2023-05-15T03:46:21.820Z,7.50
2023-05-15T03:48:49.724Z,7.60
2023-05-15T03:51:17.671Z,7.50
2023-05-15T03:53:45.617Z,7.50
2023-05-15T03:56:15.061Z,7.50
2023-05-15T03:58:42.940Z,7.40
2023-05-15T04:01:10.841Z,8.00
2023-05-15T04:03:38.771Z,7.50
2023-05-15T04:06:07.317Z,7.70
2023-05-15T04:08:35.168Z,7.50
2023-05-15T04:11:03.053Z,7.60
2023-05-15T04:13:32.280Z,7.60
2023-05-15T04:16:01.086Z,7.90
2023-05-15T04:18:28.989Z,7.70
2023-05-15T04:20:56.929Z,8.00
2023-05-15T04:23:24.896Z,7.80
2023-05-15T04:25:53.668Z,7.80
2023-05-15T04:28:21.990Z,7.90
2023-05-15T04:30:51.600Z,8.00
2023-05-15T04:33:19.460Z,8.00
2023-05-15T04:35:48.042Z,8.10
2023-05-15T04:38:15.998Z,8.80
2023-05-15T04:40:43.941Z,8.30
2023-05-15T04:43:11.885Z,8.40
2023-05-15T04:45:39.782Z,8.50
2023-05-15T04:48:09.180Z,9.10
2023-05-15T04:50:37.242Z,8.80
2023-05-15T04:53:05.441Z,9.50
2023-05-15T04:55:33.792Z,9.40
2023-05-15T04:58:01.710Z,9.80
2023-05-15T05:00:29.960Z,10.20
2023-05-15T05:02:57.869Z,10.50
2023-05-15T05:05:27.413Z,10.90
2023-05-15T05:07:55.304Z,11.20
2023-05-15T05:10:23.198Z,11.00
2023-05-15T05:12:51.063Z,11.30
2023-05-15T05:15:21.938Z,11.80
2023-05-15T05:17:49.909Z,11.90
2023-05-15T05:20:18.008Z,12.40
2023-05-15T05:22:47.225Z,12.60
2023-05-15T05:25:15.115Z,13.20
2023-05-15T05:27:43.191Z,13.80
2023-05-15T05:30:11.942Z,13.80
2023-05-15T05:32:39.816Z,14.20
2023-05-15T05:35:08.126Z,14.50
2023-05-15T05:37:37.114Z,14.60
2023-05-15T05:40:09.659Z,15.20
2023-05-15T05:42:37.533Z,15.30
2023-05-15T05:45:06.564Z,15.90
2023-05-15T05:47:34.494Z,16.10
2023-05-15T05:50:02.409Z,16.30
2023-05-15T05:52:30.880Z,16.50
2023-05-15T05:54:58.716Z,16.50
2023-05-15T05:57:27.953Z,17.00
2023-05-15T05:59:55.877Z,16.90
2023-05-15T06:02:23.867Z,17.20
2023-05-15T06:04:52.427Z,17.40
2023-05-15T06:07:20.447Z,17.60
2023-05-15T06:09:48.755Z,17.50
2023-05-15T06:12:16.679Z,18.00
2023-05-15T06:14:46.127Z,17.80
2023-05-15T06:17:14.261Z,18.10
2023-05-15T06:19:42.195Z,18.30
2023-05-15T06:22:10.138Z,18.20
2023-05-15T06:24:37.954Z,18.40
2023-05-15T06:27:06.216Z,18.90
2023-05-15T06:29:34.145Z,18.70
2023-05-15T06:32:03.366Z,18.60
2023-05-15T06:34:31.309Z,18.60
2023-05-15T06:36:59.141Z,18.60
2023-05-15T06:39:26.970Z,18.80
2023-05-15T06:41:59.012Z,19.20
2023-05-15T06:44:26.905Z,19.50
2023-05-15T06:46:55.030Z,19.50
2023-05-15T06:49:24.923Z,19.70
2023-05-15T06:51:54.801Z,19.80
2023-05-15T06:54:22.843Z,19.80
2023-05-15T06:56:51.757Z,19.90
2023-05-15T06:59:19.613Z,20.00
2023-05-15T07:01:47.501Z,20.20
2023-05-15T07:04:15.681Z,20.10
2023-05-15T07:06:45.093Z,20.30
2023-05-15T07:09:13.876Z,20.50
2023-05-15T07:11:42.153Z,20.10
2023-05-15T07:14:10.077Z,20.40
2023-05-15T07:16:37.952Z,20.70
2023-05-15T07:19:05.867Z,21.00
2023-05-15T07:21:33.758Z,21.10
2023-05-15T07:24:03.112Z,21.20
2023-05-15T07:26:36.537Z,21.40
2023-05-15T07:29:12.758Z,21.60
2023-05-15T07:31:44.579Z,21.80
2023-05-15T07:34:12.950Z,22.00
2023-05-15T07:36:40.916Z,22.10
2023-05-15T07:39:10.199Z,22.00
2023-05-15T07:41:38.067Z,22.10
2023-05-15T07:44:06.510Z,22.10
2023-05-15T07:46:34.644Z,22.20
2023-05-15T07:49:02.729Z,22.40
2023-05-15T07:51:30.651Z,22.50
2023-05-15T07:53:58.516Z,22.50
2023-05-15T07:56:28.149Z,22.80
2023-05-15T07:58:56.062Z,23.10
2023-05-15T08:01:23.975Z,23.30
2023-05-15T08:03:51.925Z,23.50
2023-05-15T08:06:19.894Z,23.60
2023-05-15T08:08:47.769Z,23.80
2023-05-15T08:11:15.749Z,23.80
2023-05-15T08:13:45.104Z,23.70
2023-05-15T08:16:13.116Z,23.60
2023-05-15T08:18:41.123Z,23.50
2023-05-15T08:21:09.200Z,23.60
2023-05-15T08:23:37.113Z,23.70
2023-05-15T08:26:05.158Z,23.50
2023-05-15T08:28:33.539Z,23.50
2023-05-15T08:31:02.811Z,23.50
2023-05-15T08:33:30.710Z,23.50
2023-05-15T08:35:59.281Z,23.50
2023-05-15T08:38:27.175Z,23.60
2023-05-15T08:40:58.717Z,23.80
2023-05-15T08:43:28.585Z,23.80
2023-05-15T08:45:56.519Z,23.90
2023-05-15T08:48:27.747Z,23.80
2023-05-15T08:50:58.406Z,23.80
2023-05-15T08:53:26.635Z,23.80
2023-05-15T08:55:54.575Z,23.80
2023-05-15T08:58:26.193Z,23.90
2023-05-15T09:00:54.180Z,24.00
2023-05-15T09:03:23.383Z,24.20
2023-05-15T09:05:53.865Z,24.20
2023-05-15T09:08:23.903Z,24.20
2023-05-15T09:10:54.325Z,24.20
2023-05-15T09:13:22.222Z,24.30
2023-05-15T09:15:50.647Z,24.10
2023-05-15T09:18:19.503Z,24.10
2023-05-15T09:20:47.357Z,24.00
2023-05-15T09:23:27.498Z,23.90
2023-05-15T09:25:56.881Z,24.20
2023-05-15T09:28:29.538Z,24.50
2023-05-15T09:31:02.256Z,24.50
2023-05-15T09:33:32.408Z,24.30
2023-05-15T09:36:00.493Z,24.20
2023-05-15T09:38:30.793Z,24.20
2023-05-15T09:41:06.234Z,24.30
2023-05-15T09:43:39.298Z,24.50
2023-05-15T09:46:08.188Z,24.10
2023-05-15T09:48:36.872Z,24.10
2023-05-15T09:51:07.617Z,24.10
2023-05-15T09:53:38.661Z,24.30
2023-05-15T09:56:06.870Z,24.30
2023-05-15T09:58:36.660Z,24.30
2023-05-15T10:01:04.693Z,24.00
2023-05-15T10:03:32.649Z,23.90
2023-05-15T10:06:01.845Z,24.00
2023-05-15T10:08:29.787Z,23.90
2023-05-15T10:11:01.330Z,24.00
2023-05-15T10:13:32.909Z,24.10
2023-05-15T10:16:03.423Z,24.30
2023-05-15T10:18:32.948Z,24.00
2023-05-15T10:21:04.039Z,24.20
2023-05-15T10:23:34.105Z,24.30
2023-05-15T10:26:07.628Z,24.60
2023-05-15T10:28:37.205Z,24.70
2023-05-15T10:31:06.799Z,24.60
2023-05-15T10:33:36.900Z,24.40
2023-05-15T10:36:05.708Z,24.10
2023-05-15T10:38:35.393Z,23.90
2023-05-15T10:41:16.503Z,23.80
2023-05-15T10:43:45.716Z,23.80
2023-05-15T10:46:14.394Z,23.80
2023-05-15T10:48:42.483Z,23.80
2023-05-15T10:51:16.291Z,23.70
2023-05-15T10:53:44.508Z,23.90
2023-05-15T10:56:17.768Z,24.00
2023-05-15T10:58:47.993Z,23.80
2023-05-15T11:01:29.681Z,24.00
2023-05-15T11:04:12.425Z,24.20
2023-05-15T11:06:45.526Z,24.50
2023-05-15T11:09:40.502Z,24.70
2023-05-15T11:12:11.682Z,24.70
2023-05-15T11:14:41.569Z,24.90
2023-05-15T11:17:10.520Z,24.80
2023-05-15T11:19:58.776Z,24.70
2023-05-15T11:22:32.422Z,24.80
2023-05-15T11:25:02.163Z,24.90
2023-05-15T11:27:33.565Z,24.80
2023-05-15T11:30:05.907Z,24.60
2023-05-15T11:32:41.253Z,24.90
2023-05-15T11:35:11.303Z,25.10
2023-05-15T11:37:42.769Z,25.20
2023-05-15T11:40:14.545Z,25.40
2023-05-15T11:42:59.177Z,25.20
2023-05-15T11:45:27.156Z,24.70
2023-05-15T11:47:55.052Z,24.70
2023-05-15T11:50:23.726Z,24.80
2023-05-15T11:52:52.034Z,24.90
2023-05-15T11:55:21.019Z,25.00
2023-05-15T11:57:50.816Z,25.20
2023-05-15T12:00:19.036Z,24.80
2023-05-15T12:02:47.217Z,24.80
2023-05-15T12:05:15.188Z,24.70
2023-05-15T12:07:44.311Z,24.70
2023-05-15T12:10:12.797Z,24.90
2023-05-15T12:12:41.975Z,25.00
2023-05-15T12:15:15.692Z,24.90
2023-05-15T12:17:44.864Z,24.50
2023-05-15T12:20:16.768Z,24.20
2023-05-15T12:22:45.909Z,23.90
2023-05-15T12:25:16.003Z,23.60
2023-05-15T12:27:44.186Z,23.20
2023-05-15T12:30:14.726Z,23.00
2023-05-15T12:32:43.157Z,22.60
2023-05-15T12:35:12.752Z,22.60
2023-05-15T12:37:41.091Z,22.30
2023-05-15T12:40:11.553Z,22.10
2023-05-15T12:42:43.260Z,21.80
2023-05-15T12:45:16.662Z,21.70
2023-05-15T12:47:45.567Z,21.30
2023-05-15T12:50:17.213Z,20.90
2023-05-15T12:52:51.306Z,20.60
2023-05-15T12:55:19.904Z,20.40
2023-05-15T12:57:47.793Z,20.10
2023-05-15T13:00:17.956Z,19.90
2023-05-15T13:02:46.597Z,19.70
2023-05-15T13:05:15.158Z,19.60
2023-05-15T13:07:43.857Z,19.70
2023-05-15T13:10:13.199Z,19.70
2023-05-15T13:12:43.898Z,19.80
2023-05-15T13:15:26.203Z,20.00
2023-05-15T13:17:57.373Z,20.10
2023-05-15T13:20:25.593Z,20.20
2023-05-15T13:22:53.635Z,20.60
2023-05-15T13:25:22.090Z,21.00
2023-05-15T13:27:50.229Z,21.20
2023-05-15T13:30:18.732Z,21.60
2023-05-15T13:32:47.965Z,21.80
2023-05-15T13:35:16.390Z,22.10
2023-05-15T13:37:44.344Z,22.40
2023-05-15T13:40:13.307Z,22.50
2023-05-15T13:42:42.379Z,22.50
2023-05-15T13:45:12.298Z,22.40
2023-05-15T13:47:40.351Z,22.90
2023-05-15T13:50:11.423Z,23.10
2023-05-15T13:52:39.961Z,23.20
2023-05-15T13:55:09.672Z,23.10
2023-05-15T13:57:37.795Z,23.10
2023-05-15T14:00:07.367Z,22.90
2023-05-15T14:02:35.325Z,23.00
2023-05-15T14:05:04.604Z,23.10
2023-05-15T14:07:33.814Z,23.40
2023-05-15T14:10:01.716Z,23.40
2023-05-15T14:12:29.549Z,23.30
2023-05-15T14:14:58.300Z,23.30
2023-05-15T14:17:27.821Z,23.20
2023-05-15T14:19:56.025Z,23.10
2023-05-15T14:22:24.944Z,22.90
2023-05-15T14:24:54.445Z,22.70
2023-05-15T14:27:22.296Z,22.40
2023-05-15T14:29:51.155Z,22.30
2023-05-15T14:32:19.078Z,22.40
2023-05-15T14:34:47.023Z,22.40
2023-05-15T14:37:14.899Z,22.50
2023-05-15T14:39:42.907Z,22.60
2023-05-15T14:42:12.476Z,22.80
2023-05-15T14:44:40.331Z,22.80
2023-05-15T14:47:09.235Z,22.70
2023-05-15T14:49:37.708Z,22.50
2023-05-15T14:52:08.142Z,22.30
2023-05-15T14:54:36.432Z,22.20
2023-05-15T14:57:04.722Z,22.10
2023-05-15T14:59:33.931Z,22.00
2023-05-15T15:02:01.967Z,21.80
2023-05-15T15:04:34.203Z,21.90
2023-05-15T15:07:04.581Z,22.20
2023-05-15T15:09:32.450Z,21.90
2023-05-15T15:12:00.476Z,21.80
2023-05-15T15:14:28.392Z,21.80
2023-05-15T15:16:57.571Z,21.70
2023-05-15T15:19:25.489Z,21.70
2023-05-15T15:21:53.399Z,21.40
2023-05-15T15:24:21.273Z,21.30
2023-05-15T15:26:49.158Z,21.00
2023-05-15T15:29:17.032Z,20.90
2023-05-15T15:31:44.953Z,20.90
2023-05-15T15:34:14.250Z,20.50
2023-05-15T15:36:43.475Z,20.30
2023-05-15T15:39:12.850Z,20.30
2023-05-15T15:41:40.871Z,20.70
2023-05-15T15:44:08.729Z,20.60
2023-05-15T15:46:36.625Z,20.50
2023-05-15T15:49:06.005Z,20.40
2023-05-15T15:51:36.200Z,20.40
2023-05-15T15:54:04.169Z,20.30
2023-05-15T15:56:32.071Z,20.20
2023-05-15T15:59:00.182Z,20.20
2023-05-15T16:01:28.885Z,20.20
2023-05-15T16:03:56.841Z,20.10
2023-05-15T16:06:24.765Z,20.10
2023-05-15T16:08:54.040Z,20.30
2023-05-15T16:11:22.463Z,20.20
2023-05-15T16:13:50.364Z,20.30
2023-05-15T16:16:18.286Z,20.50
2023-05-15T16:18:47.314Z,20.40
2023-05-15T16:21:15.525Z,20.30
2023-05-15T16:23:43.508Z,20.30
2023-05-15T16:26:12.793Z,20.20
2023-05-15T16:28:40.794Z,20.10
2023-05-15T16:31:09.399Z,20.10
2023-05-15T16:33:37.385Z,20.00
2023-05-15T16:36:05.948Z,19.90
2023-05-15T16:38:33.858Z,19.80
2023-05-15T16:41:02.178Z,19.80
2023-05-15T16:43:31.470Z,19.70
2023-05-15T16:45:59.821Z,19.70
2023-05-15T16:48:28.022Z,19.60
2023-05-15T16:50:55.917Z,19.80
2023-05-15T16:53:23.928Z,19.40
2023-05-15T16:55:51.940Z,19.50
2023-05-15T16:58:20.116Z,19.40
2023-05-15T17:00:50.018Z,19.30
2023-05-15T17:03:18.928Z,19.30
2023-05-15T17:05:47.382Z,19.20
2023-05-15T17:08:15.345Z,19.60
2023-05-15T17:10:43.292Z,19.10
2023-05-15T17:13:11.205Z,19.10
2023-05-15T17:15:39.123Z,19.60
2023-05-15T17:18:08.533Z,19.50
2023-05-15T17:20:36.488Z,19.00
2023-05-15T17:23:04.363Z,19.20
2023-05-15T17:25:32.364Z,19.50
2023-05-15T17:28:00.315Z,18.90
2023-05-15T17:30:28.308Z,19.00
2023-05-15T17:32:56.761Z,18.70
2023-05-15T17:35:26.426Z,18.60
2023-05-15T17:37:54.505Z,18.60
2023-05-15T17:40:22.420Z,18.40
2023-05-15T17:42:50.431Z,18.30
2023-05-15T17:45:18.487Z,18.20
2023-05-15T17:47:46.481Z,18.00
2023-05-15T17:50:14.652Z,18.10
2023-05-15T17:52:43.898Z,17.80
2023-05-15T17:55:11.813Z,17.70
2023-05-15T17:57:39.994Z,17.60
2023-05-15T18:00:09.328Z,17.60
2023-05-15T18:02:37.277Z,17.50
2023-05-15T18:05:05.793Z,17.40
2023-05-15T18:07:33.696Z,17.30
2023-05-15T18:10:02.968Z,17.20
2023-05-15T18:12:31.083Z,17.10
2023-05-15T18:14:58.998Z,17.10
2023-05-15T18:17:26.989Z,17.00
2023-05-15T18:19:54.863Z,17.20
2023-05-15T18:22:22.734Z,16.80
2023-05-15T18:24:50.615Z,16.50
2023-05-15T18:27:19.931Z,16.60
2023-05-15T18:29:47.924Z,16.50
2023-05-15T18:32:15.921Z,16.40
2023-05-15T18:34:43.813Z,16.30
2023-05-15T18:37:11.690Z,16.30
2023-05-15T18:39:39.666Z,16.10
2023-05-15T18:42:08.263Z,16.10
2023-05-15T18:44:37.450Z,16.00
2023-05-15T18:47:05.786Z,15.80
2023-05-15T18:49:33.856Z,15.90
2023-05-15T18:52:01.787Z,16.00
2023-05-15T18:54:30.226Z,15.90
2023-05-15T18:56:58.158Z,16.00
2023-05-15T18:59:26.911Z,15.80
2023-05-15T19:01:56.459Z,15.60
2023-05-15T19:04:24.360Z,15.50
2023-05-15T19:06:52.457Z,15.40
2023-05-15T19:09:20.396Z,15.20
2023-05-15T19:11:49.346Z,15.70
2023-05-15T19:14:17.990Z,15.10
2023-05-15T19:16:46.613Z,15.00
2023-05-15T19:19:16.041Z,14.90
2023-05-15T19:21:44.428Z,15.10
2023-05-15T19:24:12.315Z,15.30
2023-05-15T19:26:40.269Z,14.90
2023-05-15T19:29:08.231Z,14.30
2023-05-15T19:31:37.285Z,14.20
2023-05-15T19:34:05.491Z,14.00
2023-05-15T19:36:34.717Z,13.90
2023-05-15T19:39:02.623Z,13.90
2023-05-15T19:41:30.508Z,14.00
2023-05-15T19:46:26.625Z,13.40
2023-05-15T19:48:54.558Z,13.30
2023-05-15T19:51:22.460Z,13.20
2023-05-15T19:53:51.696Z,13.00
2023-05-15T19:56:22.664Z,13.00
2023-05-15T19:58:50.522Z,12.80
2023-05-15T20:01:18.448Z,12.70
2023-05-15T20:03:46.461Z,12.70
2023-05-15T20:06:14.439Z,12.50
2023-05-15T20:08:42.388Z,12.40
2023-05-15T20:11:11.629Z,12.70
2023-05-15T20:13:39.552Z,12.20
2023-05-15T20:16:10.410Z,12.10
2023-05-15T20:18:39.591Z,12.00
2023-05-15T20:21:07.588Z,11.90
2023-05-15T20:23:35.462Z,11.90
2023-05-15T20:26:04.271Z,11.80
2023-05-15T20:28:33.540Z,11.70
2023-05-15T20:31:02.095Z,11.60
2023-05-15T20:33:30.189Z,11.50
2023-05-15T20:35:58.204Z,11.30
2023-05-15T20:38:26.249Z,11.20
2023-05-15T20:40:54.107Z,11.10
2023-05-15T20:43:22.031Z,11.80
2023-05-15T20:45:51.667Z,11.10
2023-05-15T20:48:19.579Z,10.90
2023-05-15T20:50:47.519Z,11.30
2023-05-15T20:53:15.410Z,11.00
2023-05-15T20:55:43.303Z,10.90
2023-05-15T20:58:11.209Z,10.80
2023-05-15T21:00:39.179Z,10.80
2023-05-15T21:03:09.368Z,10.80
2023-05-15T21:05:37.377Z,11.00
2023-05-15T21:08:05.613Z,10.80
2023-05-15T21:10:33.548Z,10.80
2023-05-15T21:13:01.493Z,11.00
2023-05-15T21:15:29.368Z,10.70
2023-05-15T21:17:57.345Z,11.00
2023-05-15T21:20:27.143Z,10.90
2023-05-15T21:22:55.180Z,10.90
2023-05-15T21:25:23.062Z,10.80
2023-05-15T21:27:50.939Z,10.70
2023-05-15T21:30:18.938Z,11.30
2023-05-15T21:32:46.933Z,11.00
2023-05-15T21:35:14.819Z,10.80
2023-05-15T21:37:44.218Z,11.80
2023-05-15T21:40:13.357Z,10.90
2023-05-15T21:42:41.918Z,10.90
2023-05-15T21:45:10.826Z,10.80
2023-05-15T21:47:38.747Z,11.00
2023-05-15T21:50:07.788Z,10.80
2023-05-15T21:52:35.652Z,11.00
2023-05-15T21:55:05.360Z,10.70
2023-05-15T21:57:33.457Z,10.90
2023-05-15T22:00:01.420Z,10.80
2023-05-15T22:02:29.328Z,10.90
2023-05-15T22:04:57.327Z,10.90
2023-05-15T22:07:25.415Z,11.70
2023-05-15T22:09:53.730Z,10.80
2023-05-15T22:12:23.327Z,10.80
2023-05-15T22:17:29.055Z,10.70
2023-05-15T22:20:06.301Z,10.70
2023-05-15T22:22:34.350Z,10.70
2023-05-15T22:25:02.265Z,10.70
2023-05-15T22:27:31.778Z,10.70
2023-05-15T22:29:59.742Z,10.60
2023-05-15T22:32:27.712Z,12.40
2023-05-15T22:34:56.032Z,10.50
2023-05-15T22:37:23.933Z,10.50
2023-05-15T22:39:51.822Z,10.50
2023-05-15T22:42:20.016Z,10.30
2023-05-15T22:44:49.218Z,10.20
2023-05-15T22:47:17.107Z,10.60
2023-05-15T22:49:44.982Z,10.20
2023-05-15T22:52:13.823Z,11.30
2023-05-15T22:55:13.684Z,10.30
2023-05-15T22:57:41.663Z,10.40
2023-05-15T23:00:12.095Z,10.20
2023-05-15T23:02:42.634Z,10.40
2023-05-15T23:05:12.277Z,10.30
2023-05-15T23:07:40.120Z,10.40
2023-05-15T23:10:09.538Z,10.20
2023-05-15T23:12:37.419Z,10.40
2023-05-15T23:15:06.071Z,10.30
2023-05-15T23:17:35.430Z,10.40
2023-05-15T23:20:03.388Z,10.30
2023-05-15T23:22:31.243Z,10.40
2023-05-15T23:24:59.096Z,10.20
2023-05-15T23:27:27.015Z,10.30
2023-05-15T23:29:55.101Z,10.30
2023-05-15T23:32:22.949Z,10.30
2023-05-15T23:34:54.294Z,10.40
2023-05-15T23:37:22.128Z,10.40
2023-05-15T23:39:49.953Z,10.40
2023-05-15T23:42:17.855Z,10.40
2023-05-15T23:44:45.746Z,10.40
2023-05-15T23:47:13.622Z,10.40
2023-05-15T23:49:41.807Z,10.40
2023-05-15T23:52:11.087Z,10.40
2023-05-15T23:54:38.970Z,10.40
2023-05-15T23:57:07.243Z,10.30
2023-05-15T23:59:35.081Z,10.20
